PWSweather.com
Personal Weather Stations
Station Observations
IMAZOWIE6
WarszawaPL

WarszawaPL

Lat: 52.27957, Lon: 21.05489

Elevation: 100

Station Type: WS1080

http://stacjapogody.waw.pl/

High Low Average
Temperature 23.0°F-5.0°C 15.3°F-9.3°C 19.1°F-7.2°C
Dew Point -5.8°F-21.0°C -25.9°F-32.2°C -12.8°F-24.9°C
Winds 1.4 mph 2.3 kmh Calm Calm Calm NCalm N
Wind Gusts 4.8 mph7.7 kmh -- 2.0 mph3.2 kmh
Humidity 29% 12% 24%
Pressure 29.86 in1011.2 mb 29.72 in1006.4 mb -
Precipitation 0.00 in0.0 mm - -
Hour Temp Dew Point Humidity Winds Wind Gusts Pressure Precip Precip Rate Daily Precip Total
12:05 AM 15.4°F-9.2°C -14.3°F-25.7°C 25% Calm Calm 1.4 mph2.3 kmh 29.86 in1011.2 mb 0.00 in0.0 mm 0.00 in0.0 mm 0.00 in0.0 mm
12:20 AM 15.6°F-9.1°C -14.1°F-25.6°C 25% 0.6 mph N1.0 kmh N 2.0 mph3.2 kmh 29.85 in1010.8 mb 0.00 in0.0 mm 0.00 in0.0 mm 0.00 in0.0 mm
12:35 AM 16.0°F-8.9°C -13.8°F-25.4°C 25% Calm Calm 1.4 mph2.3 kmh 29.84 in1010.5 mb 0.00 in0.0 mm 0.00 in0.0 mm 0.00 in0.0 mm
12:50 AM 16.2°F-8.8°C -12.9°F-24.9°C 26% 0.6 mph N1.0 kmh N 3.4 mph5.5 kmh 29.84 in1010.5 mb 0.00 in0.0 mm 0.00 in0.0 mm 0.00 in0.0 mm
01:05 AM 16.5°F-8.6°C -12.6°F-24.8°C 26% Calm Calm 1.4 mph2.3 kmh 29.83 in1010.2 mb 0.00 in0.0 mm 0.00 in0.0 mm 0.00 in0.0 mm
01:20 AM 16.3°F-8.7°C -12.7°F-24.8°C 26% Calm Calm 1.4 mph2.3 kmh 29.83 in1010.2 mb 0.00 in0.0 mm 0.00 in0.0 mm 0.00 in0.0 mm
01:35 AM 16.5°F-8.6°C -12.6°F-24.8°C 26% 0.6 mph N1.0 kmh N 2.8 mph4.5 kmh 29.83 in1010.2 mb 0.00 in0.0 mm 0.00 in0.0 mm 0.00 in0.0 mm
01:50 AM 16.5°F-8.6°C -12.6°F-24.8°C 26% Calm Calm 2.0 mph3.2 kmh 29.83 in1010.2 mb 0.00 in0.0 mm 0.00 in0.0 mm 0.00 in0.0 mm
02:05 AM 16.7°F-8.5°C -12.4°F-24.7°C 26% Calm Calm 3.4 mph5.5 kmh 29.83 in1010.2 mb 0.00 in0.0 mm 0.00 in0.0 mm 0.00 in0.0 mm
02:20 AM 16.7°F-8.5°C -12.4°F-24.7°C 26% Calm Calm 1.4 mph2.3 kmh 29.82 in1009.8 mb 0.00 in0.0 mm 0.00 in0.0 mm 0.00 in0.0 mm
02:35 AM 16.9°F-8.4°C -12.3°F-24.6°C 26% Calm Calm 0.6 mph1.0 kmh 29.82 in1009.8 mb 0.00 in0.0 mm 0.00 in0.0 mm 0.00 in0.0 mm
02:50 AM 16.7°F-8.5°C -12.4°F-24.7°C 26% Calm Calm 2.0 mph3.2 kmh 29.82 in1009.8 mb 0.00 in0.0 mm 0.00 in0.0 mm 0.00 in0.0 mm
03:05 AM 16.9°F-8.4°C -12.3°F-24.6°C 26% Calm Calm 2.0 mph3.2 kmh 29.82 in1009.8 mb 0.00 in0.0 mm 0.00 in0.0 mm 0.00 in0.0 mm
03:20 AM 16.7°F-8.5°C -12.4°F-24.7°C 26% Calm Calm 0.6 mph1.0 kmh 29.81 in1009.5 mb 0.00 in0.0 mm 0.00 in0.0 mm 0.00 in0.0 mm
03:35 AM 16.7°F-8.5°C -12.4°F-24.7°C 26% Calm Calm 1.4 mph2.3 kmh 29.81 in1009.5 mb 0.00 in0.0 mm 0.00 in0.0 mm 0.00 in0.0 mm
03:50 AM 16.3°F-8.7°C -12.7°F-24.8°C 26% Calm Calm 0.6 mph1.0 kmh 29.81 in1009.5 mb 0.00 in0.0 mm 0.00 in0.0 mm 0.00 in0.0 mm
04:05 AM 16.0°F-8.9°C -13.0°F-25.0°C 26% 0.6 mph N1.0 kmh N 2.0 mph3.2 kmh 29.81 in1009.5 mb 0.00 in0.0 mm 0.00 in0.0 mm 0.00 in0.0 mm
04:20 AM 15.8°F-9.0°C -13.2°F-25.1°C 26% Calm Calm 0.6 mph1.0 kmh 29.81 in1009.5 mb 0.00 in0.0 mm 0.00 in0.0 mm 0.00 in0.0 mm
04:35 AM 15.6°F-9.1°C -13.3°F-25.2°C 26% Calm Calm 0.6 mph1.0 kmh 29.81 in1009.5 mb 0.00 in0.0 mm 0.00 in0.0 mm 0.00 in0.0 mm
04:50 AM 15.4°F-9.2°C -13.5°F-25.3°C 26% Calm Calm 2.0 mph3.2 kmh 29.81 in1009.5 mb 0.00 in0.0 mm 0.00 in0.0 mm 0.00 in0.0 mm
05:05 AM 15.4°F-9.2°C -13.5°F-25.3°C 26% 0.6 mph N1.0 kmh N 2.8 mph4.5 kmh 29.80 in1009.1 mb 0.00 in0.0 mm 0.00 in0.0 mm 0.00 in0.0 mm
05:20 AM 15.6°F-9.1°C -13.3°F-25.2°C 26% 0.6 mph N1.0 kmh N 2.8 mph4.5 kmh 29.80 in1009.1 mb 0.00 in0.0 mm 0.00 in0.0 mm 0.00 in0.0 mm
05:35 AM 15.8°F-9.0°C -13.2°F-25.1°C 26% Calm Calm 1.4 mph2.3 kmh 29.80 in1009.1 mb 0.00 in0.0 mm 0.00 in0.0 mm 0.00 in0.0 mm
05:50 AM 16.0°F-8.9°C -13.0°F-25.0°C 26% 0.6 mph N1.0 kmh N 2.8 mph4.5 kmh 29.80 in1009.1 mb 0.00 in0.0 mm 0.00 in0.0 mm 0.00 in0.0 mm
06:05 AM 15.8°F-9.0°C -13.2°F-25.1°C 26% 0.6 mph N1.0 kmh N 4.0 mph6.4 kmh 29.80 in1009.1 mb 0.00 in0.0 mm 0.00 in0.0 mm 0.00 in0.0 mm
06:20 AM 15.6°F-9.1°C -13.3°F-25.2°C 26% 0.6 mph N1.0 kmh N 2.0 mph3.2 kmh 29.79 in1008.8 mb 0.00 in0.0 mm 0.00 in0.0 mm 0.00 in0.0 mm
06:35 AM 15.3°F-9.3°C -13.6°F-25.3°C 26% 0.6 mph N1.0 kmh N 2.8 mph4.5 kmh 29.79 in1008.8 mb 0.00 in0.0 mm 0.00 in0.0 mm 0.00 in0.0 mm
06:50 AM 15.8°F-9.0°C -13.2°F-25.1°C 26% Calm Calm 0.6 mph1.0 kmh 29.79 in1008.8 mb 0.00 in0.0 mm 0.00 in0.0 mm 0.00 in0.0 mm
07:05 AM 16.0°F-8.9°C -13.0°F-25.0°C 26% Calm Calm 2.0 mph3.2 kmh 29.79 in1008.8 mb 0.00 in0.0 mm 0.00 in0.0 mm 0.00 in0.0 mm
07:20 AM 16.0°F-8.9°C -13.0°F-25.0°C 26% Calm Calm 0.6 mph1.0 kmh 29.80 in1009.1 mb 0.00 in0.0 mm 0.00 in0.0 mm 0.00 in0.0 mm
07:35 AM 16.2°F-8.8°C -12.9°F-24.9°C 26% 0.6 mph N1.0 kmh N 2.0 mph3.2 kmh 29.80 in1009.1 mb 0.00 in0.0 mm 0.00 in0.0 mm 0.00 in0.0 mm
07:50 AM 16.2°F-8.8°C -12.9°F-24.9°C 26% Calm Calm 1.4 mph2.3 kmh 29.80 in1009.1 mb 0.00 in0.0 mm 0.00 in0.0 mm 0.00 in0.0 mm
08:05 AM 16.5°F-8.6°C -11.8°F-24.3°C 27% Calm Calm 1.4 mph2.3 kmh 29.80 in1009.1 mb 0.00 in0.0 mm 0.00 in0.0 mm 0.00 in0.0 mm
08:20 AM 17.1°F-8.3°C -11.3°F-24.1°C 27% 1.4 mph N2.3 kmh N 3.4 mph5.5 kmh 29.80 in1009.1 mb 0.00 in0.0 mm 0.00 in0.0 mm 0.00 in0.0 mm
08:35 AM 17.2°F-8.2°C -11.2°F-24.0°C 27% 0.6 mph N1.0 kmh N 1.4 mph2.3 kmh 29.80 in1009.1 mb 0.00 in0.0 mm 0.00 in0.0 mm 0.00 in0.0 mm
08:50 AM 16.9°F-8.4°C -11.5°F-24.2°C 27% 0.6 mph N1.0 kmh N 2.0 mph3.2 kmh 29.79 in1008.8 mb 0.00 in0.0 mm 0.00 in0.0 mm 0.00 in0.0 mm
09:05 AM 17.4°F-8.1°C -11.0°F-23.9°C 27% Calm Calm 1.4 mph2.3 kmh 29.79 in1008.8 mb 0.00 in0.0 mm 0.00 in0.0 mm 0.00 in0.0 mm
09:20 AM 17.6°F-8.0°C -10.9°F-23.8°C 27% Calm Calm 1.4 mph2.3 kmh 29.78 in1008.5 mb 0.00 in0.0 mm 0.00 in0.0 mm 0.00 in0.0 mm
09:35 AM 18.3°F-7.6°C -10.3°F-23.5°C 27% Calm Calm 0.6 mph1.0 kmh 29.78 in1008.5 mb 0.00 in0.0 mm 0.00 in0.0 mm 0.00 in0.0 mm
09:50 AM 18.7°F-7.4°C -9.9°F-23.3°C 27% Calm Calm 1.4 mph2.3 kmh 29.78 in1008.5 mb 0.00 in0.0 mm 0.00 in0.0 mm 0.00 in0.0 mm
10:05 AM 18.7°F-7.4°C -9.9°F-23.3°C 27% Calm Calm 1.4 mph2.3 kmh 29.77 in1008.1 mb 0.00 in0.0 mm 0.00 in0.0 mm 0.00 in0.0 mm
10:20 AM 18.5°F-7.5°C -10.1°F-23.4°C 27% Calm Calm 0.6 mph1.0 kmh 29.76 in1007.8 mb 0.00 in0.0 mm 0.00 in0.0 mm 0.00 in0.0 mm
10:35 AM 18.3°F-7.6°C -10.3°F-23.5°C 27% Calm Calm 0.6 mph1.0 kmh 29.77 in1008.1 mb 0.00 in0.0 mm 0.00 in0.0 mm 0.00 in0.0 mm
10:50 AM 19.0°F-7.2°C -9.6°F-23.1°C 27% Calm Calm 0.6 mph1.0 kmh 29.76 in1007.8 mb 0.00 in0.0 mm 0.00 in0.0 mm 0.00 in0.0 mm
11:05 AM 19.0°F-7.2°C -9.6°F-23.1°C 27% Calm Calm 0.6 mph1.0 kmh 29.76 in1007.8 mb 0.00 in0.0 mm 0.00 in0.0 mm 0.00 in0.0 mm
11:20 AM 19.2°F-7.1°C -9.5°F-23.1°C 27% Calm Calm 2.8 mph4.5 kmh 29.75 in1007.5 mb 0.00 in0.0 mm 0.00 in0.0 mm 0.00 in0.0 mm
11:35 AM 19.2°F-7.1°C -9.5°F-23.1°C 27% Calm Calm 0.6 mph1.0 kmh 29.75 in1007.5 mb 0.00 in0.0 mm 0.00 in0.0 mm 0.00 in0.0 mm
11:50 AM 19.6°F-6.9°C -9.2°F-22.9°C 27% Calm Calm 0.6 mph1.0 kmh 29.75 in1007.5 mb 0.00 in0.0 mm 0.00 in0.0 mm 0.00 in0.0 mm
12:05 PM 20.3°F-6.5°C -7.8°F-22.1°C 28% Calm Calm 0.6 mph1.0 kmh 29.75 in1007.5 mb 0.00 in0.0 mm 0.00 in0.0 mm 0.00 in0.0 mm
12:20 PM 20.8°F-6.2°C -7.3°F-21.8°C 28% Calm Calm 0.6 mph1.0 kmh 29.74 in1007.1 mb 0.00 in0.0 mm 0.00 in0.0 mm 0.00 in0.0 mm
12:35 PM 20.7°F-6.3°C -7.5°F-21.9°C 28% Calm Calm 1.4 mph2.3 kmh 29.74 in1007.1 mb 0.00 in0.0 mm 0.00 in0.0 mm 0.00 in0.0 mm
12:50 PM 20.7°F-6.3°C -7.5°F-21.9°C 28% 1.4 mph N2.3 kmh N 2.8 mph4.5 kmh 29.74 in1007.1 mb 0.00 in0.0 mm 0.00 in0.0 mm 0.00 in0.0 mm
01:05 PM 20.8°F-6.2°C -7.3°F-21.8°C 28% Calm Calm 0.6 mph1.0 kmh 29.73 in1006.8 mb 0.00 in0.0 mm 0.00 in0.0 mm 0.00 in0.0 mm
01:20 PM 21.0°F-6.1°C -7.2°F-21.8°C 28% Calm Calm 1.4 mph2.3 kmh 29.73 in1006.8 mb 0.00 in0.0 mm 0.00 in0.0 mm 0.00 in0.0 mm
01:35 PM 21.0°F-6.1°C -7.2°F-21.8°C 28% Calm Calm 2.0 mph3.2 kmh 29.73 in1006.8 mb 0.00 in0.0 mm 0.00 in0.0 mm 0.00 in0.0 mm
01:50 PM 21.4°F-5.9°C -6.9°F-21.6°C 28% 0.6 mph N1.0 kmh N 2.0 mph3.2 kmh 29.73 in1006.8 mb 0.00 in0.0 mm 0.00 in0.0 mm 0.00 in0.0 mm
02:05 PM 21.7°F-5.7°C -5.8°F-21.0°C 29% Calm Calm 1.4 mph2.3 kmh 29.73 in1006.8 mb 0.00 in0.0 mm 0.00 in0.0 mm 0.00 in0.0 mm
02:20 PM 21.7°F-5.7°C -5.8°F-21.0°C 29% Calm Calm 2.0 mph3.2 kmh 29.72 in1006.4 mb 0.00 in0.0 mm 0.00 in0.0 mm 0.00 in0.0 mm
02:35 PM 21.9°F-5.6°C -6.4°F-21.3°C 28% 0.6 mph N1.0 kmh N 2.0 mph3.2 kmh 29.73 in1006.8 mb 0.00 in0.0 mm 0.00 in0.0 mm 0.00 in0.0 mm
02:50 PM 22.1°F-5.5°C -6.2°F-21.2°C 28% Calm Calm 1.4 mph2.3 kmh 29.73 in1006.8 mb 0.00 in0.0 mm 0.00 in0.0 mm 0.00 in0.0 mm
03:05 PM 22.1°F-5.5°C -7.0°F-21.7°C 27% 0.6 mph N1.0 kmh N 2.0 mph3.2 kmh 29.72 in1006.4 mb 0.00 in0.0 mm 0.00 in0.0 mm 0.00 in0.0 mm
03:20 PM 21.9°F-5.6°C -7.9°F-22.2°C 26% Calm Calm 1.4 mph2.3 kmh 29.73 in1006.8 mb 0.00 in0.0 mm 0.00 in0.0 mm 0.00 in0.0 mm
03:35 PM 21.9°F-5.6°C -7.9°F-22.2°C 26% 0.6 mph N1.0 kmh N 3.4 mph5.5 kmh 29.73 in1006.8 mb 0.00 in0.0 mm 0.00 in0.0 mm 0.00 in0.0 mm
03:50 PM 21.7°F-5.7°C -8.9°F-22.7°C 25% Calm Calm 0.6 mph1.0 kmh 29.73 in1006.8 mb 0.00 in0.0 mm 0.00 in0.0 mm 0.00 in0.0 mm
04:05 PM 21.6°F-5.8°C -9.8°F-23.2°C 24% 0.6 mph N1.0 kmh N 2.0 mph3.2 kmh 29.73 in1006.8 mb 0.00 in0.0 mm 0.00 in0.0 mm 0.00 in0.0 mm
04:20 PM 21.6°F-5.8°C -10.7°F-23.7°C 23% Calm Calm 1.4 mph2.3 kmh 29.73 in1006.8 mb 0.00 in0.0 mm 0.00 in0.0 mm 0.00 in0.0 mm
04:35 PM 21.7°F-5.7°C -11.4°F-24.1°C 22% 0.6 mph N1.0 kmh N 2.0 mph3.2 kmh 29.73 in1006.8 mb 0.00 in0.0 mm 0.00 in0.0 mm 0.00 in0.0 mm
04:50 PM 21.7°F-5.7°C -11.4°F-24.1°C 22% Calm Calm 2.0 mph3.2 kmh 29.73 in1006.8 mb 0.00 in0.0 mm 0.00 in0.0 mm 0.00 in0.0 mm
05:05 PM 21.9°F-5.6°C -12.2°F-24.6°C 21% 1.4 mph N2.3 kmh N 2.8 mph4.5 kmh 29.73 in1006.8 mb 0.00 in0.0 mm 0.00 in0.0 mm 0.00 in0.0 mm
05:20 PM 21.9°F-5.6°C -12.2°F-24.6°C 21% Calm Calm 2.0 mph3.2 kmh 29.73 in1006.8 mb 0.00 in0.0 mm 0.00 in0.0 mm 0.00 in0.0 mm
05:35 PM 22.3°F-5.4°C -12.9°F-24.9°C 20% 0.6 mph N1.0 kmh N 3.4 mph5.5 kmh 29.73 in1006.8 mb 0.00 in0.0 mm 0.00 in0.0 mm 0.00 in0.0 mm
05:50 PM 22.5°F-5.3°C -12.7°F-24.8°C 20% 0.6 mph N1.0 kmh N 3.4 mph5.5 kmh 29.74 in1007.1 mb 0.00 in0.0 mm 0.00 in0.0 mm 0.00 in0.0 mm
06:05 PM 22.5°F-5.3°C -12.7°F-24.8°C 20% 0.6 mph N1.0 kmh N 2.8 mph4.5 kmh 29.74 in1007.1 mb 0.00 in0.0 mm 0.00 in0.0 mm 0.00 in0.0 mm
06:20 PM 22.6°F-5.2°C -12.6°F-24.8°C 20% Calm Calm 2.8 mph4.5 kmh 29.74 in1007.1 mb 0.00 in0.0 mm 0.00 in0.0 mm 0.00 in0.0 mm
06:35 PM 22.6°F-5.2°C -12.6°F-24.8°C 20% 1.4 mph N2.3 kmh N 3.4 mph5.5 kmh 29.74 in1007.1 mb 0.00 in0.0 mm 0.00 in0.0 mm 0.00 in0.0 mm
06:50 PM 22.8°F-5.1°C -12.4°F-24.7°C 20% 0.6 mph N1.0 kmh N 2.8 mph4.5 kmh 29.73 in1006.8 mb 0.00 in0.0 mm 0.00 in0.0 mm 0.00 in0.0 mm
07:05 PM 23.0°F-5.0°C -12.3°F-24.6°C 20% 1.4 mph N2.3 kmh N 2.0 mph3.2 kmh 29.73 in1006.8 mb 0.00 in0.0 mm 0.00 in0.0 mm 0.00 in0.0 mm
07:20 PM 22.8°F-5.1°C -13.4°F-25.2°C 19% 1.4 mph N2.3 kmh N 4.8 mph7.7 kmh 29.74 in1007.1 mb 0.00 in0.0 mm 0.00 in0.0 mm 0.00 in0.0 mm
07:35 PM 22.6°F-5.2°C -13.6°F-25.3°C 19% 1.4 mph N2.3 kmh N 2.8 mph4.5 kmh 29.74 in1007.1 mb 0.00 in0.0 mm 0.00 in0.0 mm 0.00 in0.0 mm
07:50 PM 22.5°F-5.3°C -13.7°F-25.4°C 19% 1.4 mph N2.3 kmh N 4.0 mph6.4 kmh 29.74 in1007.1 mb 0.00 in0.0 mm 0.00 in0.0 mm 0.00 in0.0 mm
08:05 PM 22.5°F-5.3°C -13.7°F-25.4°C 19% 0.6 mph N1.0 kmh N 4.0 mph6.4 kmh 29.74 in1007.1 mb 0.00 in0.0 mm 0.00 in0.0 mm 0.00 in0.0 mm
08:20 PM 22.1°F-5.5°C -16.2°F-26.8°C 17% 1.4 mph N2.3 kmh N 2.8 mph4.5 kmh 29.75 in1007.5 mb 0.00 in0.0 mm 0.00 in0.0 mm 0.00 in0.0 mm
08:35 PM 22.1°F-5.5°C -17.3°F-27.4°C 16% 0.6 mph N1.0 kmh N 2.0 mph3.2 kmh 29.75 in1007.5 mb 0.00 in0.0 mm 0.00 in0.0 mm 0.00 in0.0 mm
08:50 PM 21.6°F-5.8°C -19.0°F-28.3°C 15% Calm Calm 2.0 mph3.2 kmh 29.75 in1007.5 mb 0.00 in0.0 mm 0.00 in0.0 mm 0.00 in0.0 mm
09:05 PM 21.2°F-6.0°C -19.3°F-28.5°C 15% 0.6 mph N1.0 kmh N 2.0 mph3.2 kmh 29.75 in1007.5 mb 0.00 in0.0 mm 0.00 in0.0 mm 0.00 in0.0 mm
09:20 PM 20.8°F-6.2°C -20.9°F-29.4°C 14% 0.6 mph N1.0 kmh N 2.0 mph3.2 kmh 29.75 in1007.5 mb 0.00 in0.0 mm 0.00 in0.0 mm 0.00 in0.0 mm
09:35 PM 20.7°F-6.3°C -21.0°F-29.4°C 14% Calm Calm 2.0 mph3.2 kmh 29.75 in1007.5 mb 0.00 in0.0 mm 0.00 in0.0 mm 0.00 in0.0 mm
09:50 PM 20.7°F-6.3°C -21.0°F-29.4°C 14% 0.6 mph N1.0 kmh N 2.0 mph3.2 kmh 29.75 in1007.5 mb 0.00 in0.0 mm 0.00 in0.0 mm 0.00 in0.0 mm
10:05 PM 20.3°F-6.5°C -22.7°F-30.4°C 13% Calm Calm 1.4 mph2.3 kmh 29.76 in1007.8 mb 0.00 in0.0 mm 0.00 in0.0 mm 0.00 in0.0 mm
10:20 PM 19.6°F-6.9°C -23.3°F-30.7°C 13% 0.6 mph N1.0 kmh N 2.0 mph3.2 kmh 29.76 in1007.8 mb 0.00 in0.0 mm 0.00 in0.0 mm 0.00 in0.0 mm
10:35 PM 19.2°F-7.1°C -23.6°F-30.9°C 13% Calm Calm -- 29.76 in1007.8 mb 0.00 in0.0 mm 0.00 in0.0 mm 0.00 in0.0 mm
10:50 PM 19.0°F-7.2°C -23.7°F-30.9°C 13% Calm Calm 1.4 mph2.3 kmh 29.76 in1007.8 mb 0.00 in0.0 mm 0.00 in0.0 mm 0.00 in0.0 mm
11:05 PM 18.9°F-7.3°C -23.9°F-31.1°C 13% Calm Calm 0.6 mph1.0 kmh 29.76 in1007.8 mb 0.00 in0.0 mm 0.00 in0.0 mm 0.00 in0.0 mm
11:20 PM 18.7°F-7.4°C -24.0°F-31.1°C 13% Calm Calm 1.4 mph2.3 kmh 29.77 in1008.1 mb 0.00 in0.0 mm 0.00 in0.0 mm 0.00 in0.0 mm
11:35 PM 18.5°F-7.5°C -24.1°F-31.2°C 13% 0.6 mph N1.0 kmh N 3.4 mph5.5 kmh 29.76 in1007.8 mb 0.00 in0.0 mm 0.00 in0.0 mm 0.00 in0.0 mm
11:50 PM 18.1°F-7.7°C -25.9°F-32.2°C 12% 0.6 mph N1.0 kmh N 2.0 mph3.2 kmh 29.76 in1007.8 mb 0.00 in0.0 mm 0.00 in0.0 mm 0.00 in0.0 mm